sensor_id;sensor_type;location;lat;lon;timestamp;temperature;humidity
18207;DHT22;9229;52.354;20.886;2023-11-22T00:03:57;-1.50;99.90
18207;DHT22;9229;52.354;20.886;2023-11-22T00:08:59;-1.50;99.90
18207;DHT22;9229;52.354;20.886;2023-11-22T00:14:03;-1.50;99.90
18207;DHT22;9229;52.354;20.886;2023-11-22T00:19:06;-1.50;99.90
18207;DHT22;9229;52.354;20.886;2023-11-22T00:24:10;-1.50;99.90
18207;DHT22;9229;52.354;20.886;2023-11-22T00:29:13;-1.50;99.90
18207;DHT22;9229;52.354;20.886;2023-11-22T00:34:17;-1.50;99.90
18207;DHT22;9229;52.354;20.886;2023-11-22T00:39:19;-1.60;99.90
18207;DHT22;9229;52.354;20.886;2023-11-22T00:44:24;-1.60;99.90
18207;DHT22;9229;52.354;20.886;2023-11-22T00:49:26;-1.60;99.90
18207;DHT22;9229;52.354;20.886;2023-11-22T00:54:28;-1.60;99.90
18207;DHT22;9229;52.354;20.886;2023-11-22T00:59:31;-1.60;99.90
18207;DHT22;9229;52.354;20.886;2023-11-22T01:04:33;-1.70;99.90
18207;DHT22;9229;52.354;20.886;2023-11-22T01:09:37;-1.70;99.90
18207;DHT22;9229;52.354;20.886;2023-11-22T01:14:41;-1.80;99.90
18207;DHT22;9229;52.354;20.886;2023-11-22T01:19:43;-1.90;99.90
18207;DHT22;9229;52.354;20.886;2023-11-22T01:24:46;-1.90;99.90
18207;DHT22;9229;52.354;20.886;2023-11-22T01:29:50;-1.90;99.90
18207;DHT22;9229;52.354;20.886;2023-11-22T01:34:54;-1.90;99.90
18207;DHT22;9229;52.354;20.886;2023-11-22T01:39:58;-1.90;99.90
18207;DHT22;9229;52.354;20.886;2023-11-22T01:45:02;-2.00;99.90
18207;DHT22;9229;52.354;20.886;2023-11-22T01:50:07;-2.00;99.90
18207;DHT22;9229;52.354;20.886;2023-11-22T01:55:10;-2.00;99.90
18207;DHT22;9229;52.354;20.886;2023-11-22T02:00:14;-2.00;99.90
18207;DHT22;9229;52.354;20.886;2023-11-22T02:05:19;-2.00;99.90
18207;DHT22;9229;52.354;20.886;2023-11-22T02:10:21;-2.10;99.90
18207;DHT22;9229;52.354;20.886;2023-11-22T02:15:26;-2.10;99.90
18207;DHT22;9229;52.354;20.886;2023-11-22T02:20:28;-2.10;99.90
18207;DHT22;9229;52.354;20.886;2023-11-22T02:25:32;-2.10;99.90
18207;DHT22;9229;52.354;20.886;2023-11-22T02:30:34;-2.20;99.90
18207;DHT22;9229;52.354;20.886;2023-11-22T02:35:36;-2.20;99.90
18207;DHT22;9229;52.354;20.886;2023-11-22T02:40:41;-2.30;99.90
18207;DHT22;9229;52.354;20.886;2023-11-22T02:45:43;-2.20;99.90
18207;DHT22;9229;52.354;20.886;2023-11-22T02:50:44;-2.30;99.90
18207;DHT22;9229;52.354;20.886;2023-11-22T02:55:48;-2.30;99.90
18207;DHT22;9229;52.354;20.886;2023-11-22T03:00:50;-2.40;99.90
18207;DHT22;9229;52.354;20.886;2023-11-22T03:05:57;-2.50;99.90
18207;DHT22;9229;52.354;20.886;2023-11-22T03:11:00;-2.50;99.90
18207;DHT22;9229;52.354;20.886;2023-11-22T03:16:04;-2.60;99.90
18207;DHT22;9229;52.354;20.886;2023-11-22T03:21:06;-2.60;99.90
18207;DHT22;9229;52.354;20.886;2023-11-22T03:26:10;-2.70;99.90
18207;DHT22;9229;52.354;20.886;2023-11-22T03:31:12;-2.80;99.90
18207;DHT22;9229;52.354;20.886;2023-11-22T03:36:15;-2.90;99.90
18207;DHT22;9229;52.354;20.886;2023-11-22T03:41:18;-3.00;99.90
18207;DHT22;9229;52.354;20.886;2023-11-22T03:46:21;-3.00;99.90
18207;DHT22;9229;52.354;20.886;2023-11-22T03:51:23;-3.20;99.90
18207;DHT22;9229;52.354;20.886;2023-11-22T03:56:28;-3.20;99.90
18207;DHT22;9229;52.354;20.886;2023-11-22T04:01:30;-3.30;99.90
18207;DHT22;9229;52.354;20.886;2023-11-22T04:06:32;-3.40;99.90
18207;DHT22;9229;52.354;20.886;2023-11-22T04:11:36;-3.50;99.90
18207;DHT22;9229;52.354;20.886;2023-11-22T04:16:38;-3.60;99.90
18207;DHT22;9229;52.354;20.886;2023-11-22T04:21:39;-3.70;99.90
18207;DHT22;9229;52.354;20.886;2023-11-22T04:26:43;-3.80;99.90
18207;DHT22;9229;52.354;20.886;2023-11-22T04:31:45;-3.80;99.90
18207;DHT22;9229;52.354;20.886;2023-11-22T04:36:48;-3.90;99.90
18207;DHT22;9229;52.354;20.886;2023-11-22T04:41:52;-4.00;99.90
18207;DHT22;9229;52.354;20.886;2023-11-22T04:46:54;-4.10;99.90
18207;DHT22;9229;52.354;20.886;2023-11-22T04:51:56;-4.10;99.90
18207;DHT22;9229;52.354;20.886;2023-11-22T04:57:00;-4.20;99.90
18207;DHT22;9229;52.354;20.886;2023-11-22T05:02:03;-4.30;99.90
18207;DHT22;9229;52.354;20.886;2023-11-22T05:07:09;-4.30;99.90
18207;DHT22;9229;52.354;20.886;2023-11-22T05:12:14;-4.40;99.90
18207;DHT22;9229;52.354;20.886;2023-11-22T05:17:16;-4.50;99.90
18207;DHT22;9229;52.354;20.886;2023-11-22T05:22:18;-4.50;99.90
18207;DHT22;9229;52.354;20.886;2023-11-22T05:27:21;-4.60;99.90
18207;DHT22;9229;52.354;20.886;2023-11-22T05:32:24;-4.70;99.90
18207;DHT22;9229;52.354;20.886;2023-11-22T05:37:27;-4.70;99.90
18207;DHT22;9229;52.354;20.886;2023-11-22T05:42:31;-4.80;99.90
18207;DHT22;9229;52.354;20.886;2023-11-22T05:47:33;-4.90;99.90
18207;DHT22;9229;52.354;20.886;2023-11-22T05:52:35;-4.90;99.90
18207;DHT22;9229;52.354;20.886;2023-11-22T05:57:39;-5.00;99.90
18207;DHT22;9229;52.354;20.886;2023-11-22T06:02:41;-5.00;99.90
18207;DHT22;9229;52.354;20.886;2023-11-22T06:07:43;-5.00;99.90
18207;DHT22;9229;52.354;20.886;2023-11-22T06:12:47;-5.10;99.90
18207;DHT22;9229;52.354;20.886;2023-11-22T06:17:49;-5.10;99.90
18207;DHT22;9229;52.354;20.886;2023-11-22T06:22:51;-5.20;99.90
18207;DHT22;9229;52.354;20.886;2023-11-22T06:27:55;-5.20;99.90
18207;DHT22;9229;52.354;20.886;2023-11-22T06:32:57;-5.20;99.90
18207;DHT22;9229;52.354;20.886;2023-11-22T06:37:59;-5.20;99.90
18207;DHT22;9229;52.354;20.886;2023-11-22T06:43:02;-5.20;99.90
18207;DHT22;9229;52.354;20.886;2023-11-22T06:48:07;-5.20;99.90
18207;DHT22;9229;52.354;20.886;2023-11-22T06:53:09;-5.30;99.90
18207;DHT22;9229;52.354;20.886;2023-11-22T06:58:14;-5.30;99.90
18207;DHT22;9229;52.354;20.886;2023-11-22T07:03:18;-5.40;99.90
18207;DHT22;9229;52.354;20.886;2023-11-22T07:08:22;-5.40;99.90
18207;DHT22;9229;52.354;20.886;2023-11-22T07:13:27;-5.40;99.90
18207;DHT22;9229;52.354;20.886;2023-11-22T07:18:31;-5.40;99.90
18207;DHT22;9229;52.354;20.886;2023-11-22T07:23:34;-5.30;99.90
18207;DHT22;9229;52.354;20.886;2023-11-22T07:28:37;-5.30;99.90
18207;DHT22;9229;52.354;20.886;2023-11-22T07:33:40;-5.20;99.90
18207;DHT22;9229;52.354;20.886;2023-11-22T07:38:42;-5.20;99.90
18207;DHT22;9229;52.354;20.886;2023-11-22T07:43:46;-5.10;99.90
18207;DHT22;9229;52.354;20.886;2023-11-22T07:48:51;-4.90;99.90
18207;DHT22;9229;52.354;20.886;2023-11-22T07:53:53;-4.60;99.90
18207;DHT22;9229;52.354;20.886;2023-11-22T07:58:58;-4.00;99.90
18207;DHT22;9229;52.354;20.886;2023-11-22T08:04:01;-3.60;99.90
18207;DHT22;9229;52.354;20.886;2023-11-22T08:09:03;-3.60;99.90
18207;DHT22;9229;52.354;20.886;2023-11-22T08:14:10;-3.60;99.90
18207;DHT22;9229;52.354;20.886;2023-11-22T08:19:47;-3.70;99.90
18207;DHT22;9229;52.354;20.886;2023-11-22T08:24:50;-3.70;99.90
18207;DHT22;9229;52.354;20.886;2023-11-22T08:29:54;-3.70;99.90
18207;DHT22;9229;52.354;20.886;2023-11-22T08:34:56;-3.60;99.90
18207;DHT22;9229;52.354;20.886;2023-11-22T08:39:58;-3.60;99.90
18207;DHT22;9229;52.354;20.886;2023-11-22T08:45:03;-3.50;99.90
18207;DHT22;9229;52.354;20.886;2023-11-22T08:50:06;-3.40;99.90
18207;DHT22;9229;52.354;20.886;2023-11-22T08:55:09;-3.30;99.90
18207;DHT22;9229;52.354;20.886;2023-11-22T09:00:15;-3.20;99.90
18207;DHT22;9229;52.354;20.886;2023-11-22T09:05:22;-3.20;99.90
18207;DHT22;9229;52.354;20.886;2023-11-22T09:10:25;-3.10;99.90
18207;DHT22;9229;52.354;20.886;2023-11-22T09:15:29;-3.00;99.90
18207;DHT22;9229;52.354;20.886;2023-11-22T09:20:32;-2.90;99.90
18207;DHT22;9229;52.354;20.886;2023-11-22T09:25:34;-2.80;99.90
18207;DHT22;9229;52.354;20.886;2023-11-22T09:30:38;-2.70;99.90
18207;DHT22;9229;52.354;20.886;2023-11-22T09:35:43;-2.50;99.90
18207;DHT22;9229;52.354;20.886;2023-11-22T09:40:49;-2.20;99.90
18207;DHT22;9229;52.354;20.886;2023-11-22T09:45:53;-1.80;99.90
18207;DHT22;9229;52.354;20.886;2023-11-22T09:50:59;-1.50;99.90
18207;DHT22;9229;52.354;20.886;2023-11-22T09:56:07;-1.00;99.90
18207;DHT22;9229;52.354;20.886;2023-11-22T10:01:12;-0.90;99.90
18207;DHT22;9229;52.354;20.886;2023-11-22T10:06:15;-0.60;99.90
18207;DHT22;9229;52.354;20.886;2023-11-22T10:11:18;-0.40;99.90
18207;DHT22;9229;52.354;20.886;2023-11-22T10:16:23;-0.10;99.90
18207;DHT22;9229;52.354;20.886;2023-11-22T10:21:26;0.10;99.90
18207;DHT22;9229;52.354;20.886;2023-11-22T10:26:30;0.20;99.90
18207;DHT22;9229;52.354;20.886;2023-11-22T10:31:37;0.40;99.90
18207;DHT22;9229;52.354;20.886;2023-11-22T10:36:42;0.60;99.90
18207;DHT22;9229;52.354;20.886;2023-11-22T10:41:45;0.70;99.90
18207;DHT22;9229;52.354;20.886;2023-11-22T10:46:49;0.80;99.90
18207;DHT22;9229;52.354;20.886;2023-11-22T10:51:53;0.90;99.90
18207;DHT22;9229;52.354;20.886;2023-11-22T10:56:58;1.00;99.90
18207;DHT22;9229;52.354;20.886;2023-11-22T11:02:03;1.00;99.90
18207;DHT22;9229;52.354;20.886;2023-11-22T11:07:10;1.00;99.70
18207;DHT22;9229;52.354;20.886;2023-11-22T11:12:15;0.90;98.80
18207;DHT22;9229;52.354;20.886;2023-11-22T11:17:19;1.10;98.40
18207;DHT22;9229;52.354;20.886;2023-11-22T11:22:22;1.00;97.90
18207;DHT22;9229;52.354;20.886;2023-11-22T11:27:25;1.10;98.80
18207;DHT22;9229;52.354;20.886;2023-11-22T11:32:32;1.20;99.00
18207;DHT22;9229;52.354;20.886;2023-11-22T11:37:37;1.30;98.00
18207;DHT22;9229;52.354;20.886;2023-11-22T11:42:40;1.20;97.40
18207;DHT22;9229;52.354;20.886;2023-11-22T11:47:45;1.10;97.30
18207;DHT22;9229;52.354;20.886;2023-11-22T11:52:47;1.20;96.60
18207;DHT22;9229;52.354;20.886;2023-11-22T11:57:52;1.20;96.20
18207;DHT22;9229;52.354;20.886;2023-11-22T12:02:56;1.10;96.00
18207;DHT22;9229;52.354;20.886;2023-11-22T12:07:58;1.10;96.50
18207;DHT22;9229;52.354;20.886;2023-11-22T12:13:03;1.20;96.30
18207;DHT22;9229;52.354;20.886;2023-11-22T12:18:07;1.30;96.70
18207;DHT22;9229;52.354;20.886;2023-11-22T12:23:09;1.60;95.90
18207;DHT22;9229;52.354;20.886;2023-11-22T12:28:12;1.50;95.00
18207;DHT22;9229;52.354;20.886;2023-11-22T12:33:16;1.40;95.10
18207;DHT22;9229;52.354;20.886;2023-11-22T12:38:23;1.40;95.90
18207;DHT22;9229;52.354;20.886;2023-11-22T12:43:27;1.50;95.90
18207;DHT22;9229;52.354;20.886;2023-11-22T12:48:31;1.40;95.70
18207;DHT22;9229;52.354;20.886;2023-11-22T12:53:34;1.30;95.70
18207;DHT22;9229;52.354;20.886;2023-11-22T12:58:36;1.30;95.30
18207;DHT22;9229;52.354;20.886;2023-11-22T13:03:40;1.20;95.90
18207;DHT22;9229;52.354;20.886;2023-11-22T13:08:42;1.10;96.10
18207;DHT22;9229;52.354;20.886;2023-11-22T13:13:45;0.90;96.50
18207;DHT22;9229;52.354;20.886;2023-11-22T13:18:49;0.80;96.90
18207;DHT22;9229;52.354;20.886;2023-11-22T13:23:51;0.50;96.90
18207;DHT22;9229;52.354;20.886;2023-11-22T13:28:54;0.40;97.50
18207;DHT22;9229;52.354;20.886;2023-11-22T13:33:58;0.30;98.40
18207;DHT22;9229;52.354;20.886;2023-11-22T13:39:00;0.10;98.40
18207;DHT22;9229;52.354;20.886;2023-11-22T13:44:04;0.00;98.90
18207;DHT22;9229;52.354;20.886;2023-11-22T13:49:08;0.00;98.60
18207;DHT22;9229;52.354;20.886;2023-11-22T13:54:11;-0.10;98.90
18207;DHT22;9229;52.354;20.886;2023-11-22T13:59:15;-0.20;99.10
18207;DHT22;9229;52.354;20.886;2023-11-22T14:04:18;-0.20;99.20
18207;DHT22;9229;52.354;20.886;2023-11-22T14:09:21;-0.30;99.40
18207;DHT22;9229;52.354;20.886;2023-11-22T14:14:23;-0.40;99.70
18207;DHT22;9229;52.354;20.886;2023-11-22T14:19:30;-0.50;99.90
18207;DHT22;9229;52.354;20.886;2023-11-22T14:24:32;-0.50;99.90
18207;DHT22;9229;52.354;20.886;2023-11-22T14:29:38;-0.50;99.90
18207;DHT22;9229;52.354;20.886;2023-11-22T14:34:42;-0.50;99.90
18207;DHT22;9229;52.354;20.886;2023-11-22T14:39:46;-0.50;99.90
18207;DHT22;9229;52.354;20.886;2023-11-22T14:44:49;-0.60;99.90
18207;DHT22;9229;52.354;20.886;2023-11-22T14:49:55;-0.60;99.90
18207;DHT22;9229;52.354;20.886;2023-11-22T14:54:57;-0.70;99.90
18207;DHT22;9229;52.354;20.886;2023-11-22T15:00:01;-0.60;99.90
18207;DHT22;9229;52.354;20.886;2023-11-22T15:05:08;-0.80;99.90
18207;DHT22;9229;52.354;20.886;2023-11-22T15:10:11;-0.90;99.90
18207;DHT22;9229;52.354;20.886;2023-11-22T15:15:15;-0.90;99.90
18207;DHT22;9229;52.354;20.886;2023-11-22T15:20:23;-1.00;99.90
18207;DHT22;9229;52.354;20.886;2023-11-22T15:25:25;-1.00;99.90
18207;DHT22;9229;52.354;20.886;2023-11-22T15:30:28;-1.00;99.90
18207;DHT22;9229;52.354;20.886;2023-11-22T15:35:32;-1.10;99.90
18207;DHT22;9229;52.354;20.886;2023-11-22T15:40:37;-1.00;99.90
18207;DHT22;9229;52.354;20.886;2023-11-22T15:45:39;-1.10;99.90
18207;DHT22;9229;52.354;20.886;2023-11-22T15:50:46;-1.10;99.90
18207;DHT22;9229;52.354;20.886;2023-11-22T15:55:49;-1.10;99.90
18207;DHT22;9229;52.354;20.886;2023-11-22T16:00:52;-1.10;99.90
18207;DHT22;9229;52.354;20.886;2023-11-22T16:05:58;-1.10;99.90
18207;DHT22;9229;52.354;20.886;2023-11-22T16:11:01;-1.10;99.90
18207;DHT22;9229;52.354;20.886;2023-11-22T16:16:04;-1.10;99.90
18207;DHT22;9229;52.354;20.886;2023-11-22T16:21:09;-1.10;99.90
18207;DHT22;9229;52.354;20.886;2023-11-22T16:26:12;-1.10;99.90
18207;DHT22;9229;52.354;20.886;2023-11-22T16:31:16;-1.20;99.90
18207;DHT22;9229;52.354;20.886;2023-11-22T16:36:21;-1.10;99.90
18207;DHT22;9229;52.354;20.886;2023-11-22T16:41:25;-1.20;99.90
18207;DHT22;9229;52.354;20.886;2023-11-22T16:46:30;-1.20;99.90
18207;DHT22;9229;52.354;20.886;2023-11-22T16:51:39;-1.20;99.90
18207;DHT22;9229;52.354;20.886;2023-11-22T16:56:42;-1.30;99.90
18207;DHT22;9229;52.354;20.886;2023-11-22T17:01:44;-1.30;99.90
18207;DHT22;9229;52.354;20.886;2023-11-22T17:06:48;-1.30;99.90
18207;DHT22;9229;52.354;20.886;2023-11-22T17:11:52;-1.40;99.90
18207;DHT22;9229;52.354;20.886;2023-11-22T17:16:55;-1.40;99.90
18207;DHT22;9229;52.354;20.886;2023-11-22T17:21:59;-1.40;99.90
18207;DHT22;9229;52.354;20.886;2023-11-22T17:27:03;-1.40;99.90
18207;DHT22;9229;52.354;20.886;2023-11-22T17:32:05;-1.40;99.90
18207;DHT22;9229;52.354;20.886;2023-11-22T17:37:09;-1.50;99.90
18207;DHT22;9229;52.354;20.886;2023-11-22T17:42:17;-1.50;99.90
18207;DHT22;9229;52.354;20.886;2023-11-22T17:47:19;-1.60;99.90
18207;DHT22;9229;52.354;20.886;2023-11-22T17:52:23;-1.70;99.90
18207;DHT22;9229;52.354;20.886;2023-11-22T17:57:25;-1.80;99.90
18207;DHT22;9229;52.354;20.886;2023-11-22T18:02:28;-1.80;99.90
18207;DHT22;9229;52.354;20.886;2023-11-22T18:07:32;-1.90;99.90
18207;DHT22;9229;52.354;20.886;2023-11-22T18:12:34;-2.00;99.90
18207;DHT22;9229;52.354;20.886;2023-11-22T18:17:36;-2.00;99.90
18207;DHT22;9229;52.354;20.886;2023-11-22T18:22:42;-2.10;99.90
18207;DHT22;9229;52.354;20.886;2023-11-22T18:27:45;-2.10;99.90
18207;DHT22;9229;52.354;20.886;2023-11-22T18:32:48;-2.20;99.90
18207;DHT22;9229;52.354;20.886;2023-11-22T18:37:54;-2.20;99.90
18207;DHT22;9229;52.354;20.886;2023-11-22T18:42:58;-2.30;99.90
18207;DHT22;9229;52.354;20.886;2023-11-22T18:48:01;-2.30;99.90
18207;DHT22;9229;52.354;20.886;2023-11-22T18:53:05;-2.30;99.90
18207;DHT22;9229;52.354;20.886;2023-11-22T18:58:07;-2.30;99.90
18207;DHT22;9229;52.354;20.886;2023-11-22T19:03:10;-2.40;99.90
18207;DHT22;9229;52.354;20.886;2023-11-22T19:08:15;-2.40;99.90
18207;DHT22;9229;52.354;20.886;2023-11-22T19:13:17;-2.40;99.90
18207;DHT22;9229;52.354;20.886;2023-11-22T19:18:21;-2.40;99.90
18207;DHT22;9229;52.354;20.886;2023-11-22T19:23:25;-2.50;99.90
18207;DHT22;9229;52.354;20.886;2023-11-22T19:28:27;-2.50;99.90
18207;DHT22;9229;52.354;20.886;2023-11-22T19:33:29;-2.50;99.90
18207;DHT22;9229;52.354;20.886;2023-11-22T19:38:33;-2.50;99.90
18207;DHT22;9229;52.354;20.886;2023-11-22T19:43:43;-2.50;99.90
18207;DHT22;9229;52.354;20.886;2023-11-22T19:48:50;-2.50;99.90
18207;DHT22;9229;52.354;20.886;2023-11-22T19:53:55;-2.50;99.90
18207;DHT22;9229;52.354;20.886;2023-11-22T19:58:57;-2.60;99.90
18207;DHT22;9229;52.354;20.886;2023-11-22T20:03:59;-2.60;99.90
18207;DHT22;9229;52.354;20.886;2023-11-22T20:09:19;-2.60;99.90
18207;DHT22;9229;52.354;20.886;2023-11-22T20:14:22;-2.40;99.90
18207;DHT22;9229;52.354;20.886;2023-11-22T20:19:25;-2.50;99.90
18207;DHT22;9229;52.354;20.886;2023-11-22T20:24:28;-2.50;99.90
18207;DHT22;9229;52.354;20.886;2023-11-22T20:29:31;-2.50;99.90
18207;DHT22;9229;52.354;20.886;2023-11-22T20:34:33;-2.50;99.90
18207;DHT22;9229;52.354;20.886;2023-11-22T20:39:41;-2.50;99.90
18207;DHT22;9229;52.354;20.886;2023-11-22T20:44:53;-2.50;99.90
18207;DHT22;9229;52.354;20.886;2023-11-22T20:49:55;-2.50;99.90
18207;DHT22;9229;52.354;20.886;2023-11-22T20:54:59;-2.50;99.90
18207;DHT22;9229;52.354;20.886;2023-11-22T21:00:07;-2.40;99.90
18207;DHT22;9229;52.354;20.886;2023-11-22T21:05:11;-2.40;99.90
18207;DHT22;9229;52.354;20.886;2023-11-22T21:10:16;-2.50;99.90
18207;DHT22;9229;52.354;20.886;2023-11-22T21:15:18;-2.50;99.90
18207;DHT22;9229;52.354;20.886;2023-11-22T21:20:22;-2.60;99.90
18207;DHT22;9229;52.354;20.886;2023-11-22T21:25:26;-2.50;99.90
18207;DHT22;9229;52.354;20.886;2023-11-22T21:30:30;-2.50;99.90
18207;DHT22;9229;52.354;20.886;2023-11-22T21:35:33;-2.50;99.90
18207;DHT22;9229;52.354;20.886;2023-11-22T21:40:37;-2.50;99.90
18207;DHT22;9229;52.354;20.886;2023-11-22T21:45:41;-2.50;99.90
18207;DHT22;9229;52.354;20.886;2023-11-22T21:50:44;-2.50;99.90
18207;DHT22;9229;52.354;20.886;2023-11-22T21:55:48;-2.50;99.90
18207;DHT22;9229;52.354;20.886;2023-11-22T22:00:50;-2.50;99.90
18207;DHT22;9229;52.354;20.886;2023-11-22T22:05:54;-2.50;99.90
18207;DHT22;9229;52.354;20.886;2023-11-22T22:10:58;-2.50;99.90
18207;DHT22;9229;52.354;20.886;2023-11-22T22:16:01;-2.50;99.90
18207;DHT22;9229;52.354;20.886;2023-11-22T22:21:04;-2.60;99.90
18207;DHT22;9229;52.354;20.886;2023-11-22T22:26:08;-2.60;99.90
18207;DHT22;9229;52.354;20.886;2023-11-22T22:31:10;-2.50;99.90
18207;DHT22;9229;52.354;20.886;2023-11-22T22:36:15;-2.50;99.90
18207;DHT22;9229;52.354;20.886;2023-11-22T22:41:19;-2.60;99.90
18207;DHT22;9229;52.354;20.886;2023-11-22T22:46:23;-2.60;99.90
18207;DHT22;9229;52.354;20.886;2023-11-22T22:51:25;-2.60;99.90
18207;DHT22;9229;52.354;20.886;2023-11-22T22:56:31;-2.60;99.90
18207;DHT22;9229;52.354;20.886;2023-11-22T23:01:33;-2.60;99.90
18207;DHT22;9229;52.354;20.886;2023-11-22T23:06:35;-2.50;99.90
18207;DHT22;9229;52.354;20.886;2023-11-22T23:11:40;-2.50;99.90
18207;DHT22;9229;52.354;20.886;2023-11-22T23:16:43;-2.60;99.90
18207;DHT22;9229;52.354;20.886;2023-11-22T23:21:45;-2.60;99.90
18207;DHT22;9229;52.354;20.886;2023-11-22T23:26:50;-2.60;99.90
18207;DHT22;9229;52.354;20.886;2023-11-22T23:31:52;-2.60;99.90
18207;DHT22;9229;52.354;20.886;2023-11-22T23:36:54;-2.60;99.90
18207;DHT22;9229;52.354;20.886;2023-11-22T23:41:58;-2.60;99.90
18207;DHT22;9229;52.354;20.886;2023-11-22T23:47:00;-2.50;99.90
18207;DHT22;9229;52.354;20.886;2023-11-22T23:52:04;-2.50;99.90
18207;DHT22;9229;52.354;20.886;2023-11-22T23:57:09;-2.50;99.90
